sensor_id;sensor_type;location;lat;lon;timestamp;pressure;altitude;pressure_sealevel;temperature;humidity
19600;BME280;9947;57.722;12.012;2023-04-28T00:01:03;101069.63;;;3.65;100.00
19600;BME280;9947;57.722;12.012;2023-04-28T00:03:30;101079.44;;;3.65;100.00
19600;BME280;9947;57.722;12.012;2023-04-28T00:06:03;101086.59;;;3.64;100.00
19600;BME280;9947;57.722;12.012;2023-04-28T00:08:33;101081.34;;;3.61;100.00
19600;BME280;9947;57.722;12.012;2023-04-28T00:13:47;101079.38;;;3.66;100.00
19600;BME280;9947;57.722;12.012;2023-04-28T00:16:19;101083.16;;;3.61;100.00
19600;BME280;9947;57.722;12.012;2023-04-28T00:18:50;101080.63;;;3.58;100.00
19600;BME280;9947;57.722;12.012;2023-04-28T00:23:59;101088.50;;;3.61;100.00
19600;BME280;9947;57.722;12.012;2023-04-28T00:26:28;101080.88;;;3.52;100.00
19600;BME280;9947;57.722;12.012;2023-04-28T00:29:08;101085.41;;;3.50;100.00
19600;BME280;9947;57.722;12.012;2023-04-28T00:31:44;101090.91;;;3.47;100.00
19600;BME280;9947;57.722;12.012;2023-04-28T00:34:17;101081.22;;;3.44;100.00
19600;BME280;9947;57.722;12.012;2023-04-28T00:36:47;101085.69;;;3.44;100.00
19600;BME280;9947;57.722;12.012;2023-04-28T00:39:20;101081.44;;;3.38;100.00
19600;BME280;9947;57.722;12.012;2023-04-28T00:41:55;101084.81;;;3.43;100.00
19600;BME280;9947;57.722;12.012;2023-04-28T00:44:28;101087.41;;;3.45;100.00
19600;BME280;9947;57.722;12.012;2023-04-28T00:46:58;101089.28;;;3.43;100.00
19600;BME280;9947;57.722;12.012;2023-04-28T00:49:26;101092.19;;;3.36;100.00
19600;BME280;9947;57.722;12.012;2023-04-28T00:51:57;101089.72;;;3.32;100.00
19600;BME280;9947;57.722;12.012;2023-04-28T00:54:32;101094.25;;;3.30;100.00
19600;BME280;9947;57.722;12.012;2023-04-28T00:59:31;101094.38;;;3.27;100.00
19600;BME280;9947;57.722;12.012;2023-04-28T01:04:45;101091.09;;;3.20;100.00
19600;BME280;9947;57.722;12.012;2023-04-28T01:07:13;101099.31;;;3.16;100.00
19600;BME280;9947;57.722;12.012;2023-04-28T01:09:45;101094.84;;;3.16;100.00
19600;BME280;9947;57.722;12.012;2023-04-28T01:12:16;101096.13;;;3.06;100.00
19600;BME280;9947;57.722;12.012;2023-04-28T01:14:55;101103.50;;;2.99;100.00
19600;BME280;9947;57.722;12.012;2023-04-28T01:17:26;101101.91;;;2.95;100.00
19600;BME280;9947;57.722;12.012;2023-04-28T01:19:56;101103.03;;;2.66;100.00
19600;BME280;9947;57.722;12.012;2023-04-28T01:22:31;101095.66;;;2.50;100.00
19600;BME280;9947;57.722;12.012;2023-04-28T01:25:06;101095.56;;;2.28;100.00
19600;BME280;9947;57.722;12.012;2023-04-28T01:27:37;101107.75;;;2.11;100.00
19600;BME280;9947;57.722;12.012;2023-04-28T01:32:36;101107.69;;;1.88;100.00
19600;BME280;9947;57.722;12.012;2023-04-28T01:35:05;101110.53;;;2.08;100.00
19600;BME280;9947;57.722;12.012;2023-04-28T01:37:33;101099.88;;;2.32;100.00
19600;BME280;9947;57.722;12.012;2023-04-28T01:40:13;101101.84;;;2.50;100.00
19600;BME280;9947;57.722;12.012;2023-04-28T01:42:51;101098.94;;;2.56;100.00
19600;BME280;9947;57.722;12.012;2023-04-28T01:45:19;101098.94;;;2.56;100.00
19600;BME280;9947;57.722;12.012;2023-04-28T01:47:54;101103.28;;;2.60;100.00
19600;BME280;9947;57.722;12.012;2023-04-28T01:50:26;101108.22;;;2.23;100.00
19600;BME280;9947;57.722;12.012;2023-04-28T01:52:55;101106.41;;;1.98;100.00
19600;BME280;9947;57.722;12.012;2023-04-28T01:55:27;101103.63;;;1.76;100.00
19600;BME280;9947;57.722;12.012;2023-04-28T01:57:57;101107.75;;;1.60;100.00
19600;BME280;9947;57.722;12.012;2023-04-28T02:00:26;101105.59;;;1.45;100.00
19600;BME280;9947;57.722;12.012;2023-04-28T02:02:53;101109.44;;;1.36;100.00
19600;BME280;9947;57.722;12.012;2023-04-28T02:05:23;101113.22;;;1.29;100.00
19600;BME280;9947;57.722;12.012;2023-04-28T02:07:51;101108.00;;;1.26;100.00
19600;BME280;9947;57.722;12.012;2023-04-28T02:10:18;101113.25;;;1.28;100.00
19600;BME280;9947;57.722;12.012;2023-04-28T02:12:51;101117.94;;;1.21;100.00
19600;BME280;9947;57.722;12.012;2023-04-28T02:15:18;101114.13;;;1.28;100.00
19600;BME280;9947;57.722;12.012;2023-04-28T02:17:47;101126.16;;;1.13;100.00
19600;BME280;9947;57.722;12.012;2023-04-28T02:20:14;101124.75;;;1.02;100.00
19600;BME280;9947;57.722;12.012;2023-04-28T02:22:43;101125.81;;;0.96;100.00
19600;BME280;9947;57.722;12.012;2023-04-28T02:25:19;101121.50;;;0.92;100.00
19600;BME280;9947;57.722;12.012;2023-04-28T02:27:49;101113.66;;;0.87;100.00
19600;BME280;9947;57.722;12.012;2023-04-28T02:30:17;101114.91;;;1.04;100.00
19600;BME280;9947;57.722;12.012;2023-04-28T02:32:47;101117.56;;;1.04;100.00
19600;BME280;9947;57.722;12.012;2023-04-28T02:35:17;101119.03;;;1.14;100.00
19600;BME280;9947;57.722;12.012;2023-04-28T02:37:45;101115.50;;;1.13;100.00
19600;BME280;9947;57.722;12.012;2023-04-28T02:42:42;101122.84;;;0.77;100.00
19600;BME280;9947;57.722;12.012;2023-04-28T02:47:59;101123.41;;;0.59;100.00
19600;BME280;9947;57.722;12.012;2023-04-28T02:50:29;101118.25;;;0.53;100.00
19600;BME280;9947;57.722;12.012;2023-04-28T02:52:58;101124.56;;;0.49;100.00
19600;BME280;9947;57.722;12.012;2023-04-28T02:55:26;101122.47;;;0.60;100.00
19600;BME280;9947;57.722;12.012;2023-04-28T02:57:55;101116.06;;;0.67;100.00
19600;BME280;9947;57.722;12.012;2023-04-28T03:03:06;101118.38;;;0.79;100.00
19600;BME280;9947;57.722;12.012;2023-04-28T03:05:39;101116.53;;;0.81;100.00
19600;BME280;9947;57.722;12.012;2023-04-28T03:08:11;101116.69;;;0.75;100.00
19600;BME280;9947;57.722;12.012;2023-04-28T03:10:40;101122.56;;;0.57;100.00
19600;BME280;9947;57.722;12.012;2023-04-28T03:13:13;101131.03;;;0.40;100.00
19600;BME280;9947;57.722;12.012;2023-04-28T03:18:46;101125.63;;;0.12;100.00
19600;BME280;9947;57.722;12.012;2023-04-28T03:21:30;101126.41;;;0.16;100.00
19600;BME280;9947;57.722;12.012;2023-04-28T03:24:31;101126.22;;;0.22;100.00
19600;BME280;9947;57.722;12.012;2023-04-28T03:27:18;101122.41;;;0.32;100.00
19600;BME280;9947;57.722;12.012;2023-04-28T03:32:20;101129.28;;;0.39;100.00
19600;BME280;9947;57.722;12.012;2023-04-28T03:35:21;101134.78;;;0.33;100.00
19600;BME280;9947;57.722;12.012;2023-04-28T03:37:59;101138.59;;;0.23;100.00
19600;BME280;9947;57.722;12.012;2023-04-28T03:40:48;101129.59;;;0.28;100.00
19600;BME280;9947;57.722;12.012;2023-04-28T03:43:28;101136.50;;;0.36;100.00
19600;BME280;9947;57.722;12.012;2023-04-28T03:48:22;101139.78;;;0.44;100.00
19600;BME280;9947;57.722;12.012;2023-04-28T03:50:52;101140.31;;;0.56;100.00
19600;BME280;9947;57.722;12.012;2023-04-28T03:53:20;101144.34;;;0.70;100.00
19600;BME280;9947;57.722;12.012;2023-04-28T03:55:50;101140.44;;;0.83;100.00
19600;BME280;9947;57.722;12.012;2023-04-28T03:58:18;101142.56;;;1.00;100.00
19600;BME280;9947;57.722;12.012;2023-04-28T04:00:48;101146.16;;;1.27;100.00
19600;BME280;9947;57.722;12.012;2023-04-28T04:03:18;101137.34;;;1.51;100.00
19600;BME280;9947;57.722;12.012;2023-04-28T04:05:49;101142.75;;;1.76;100.00
19600;BME280;9947;57.722;12.012;2023-04-28T04:08:18;101142.69;;;1.77;100.00
19600;BME280;9947;57.722;12.012;2023-04-28T04:10:47;101138.66;;;1.66;100.00
19600;BME280;9947;57.722;12.012;2023-04-28T04:13:15;101141.03;;;2.25;100.00
19600;BME280;9947;57.722;12.012;2023-04-28T04:15:44;101146.22;;;2.53;100.00
19600;BME280;9947;57.722;12.012;2023-04-28T04:18:13;101146.78;;;2.62;100.00
19600;BME280;9947;57.722;12.012;2023-04-28T04:20:42;101149.78;;;2.28;100.00
19600;BME280;9947;57.722;12.012;2023-04-28T04:23:14;101150.59;;;2.30;100.00
19600;BME280;9947;57.722;12.012;2023-04-28T04:25:55;101144.31;;;2.79;100.00
19600;BME280;9947;57.722;12.012;2023-04-28T04:28:24;101151.53;;;3.01;100.00
19600;BME280;9947;57.722;12.012;2023-04-28T04:30:52;101149.97;;;2.95;100.00
19600;BME280;9947;57.722;12.012;2023-04-28T04:33:20;101141.78;;;2.76;100.00
19600;BME280;9947;57.722;12.012;2023-04-28T04:35:48;101149.06;;;3.62;100.00
19600;BME280;9947;57.722;12.012;2023-04-28T04:38:16;101147.50;;;3.78;100.00
19600;BME280;9947;57.722;12.012;2023-04-28T04:40:43;101145.84;;;4.37;100.00
19600;BME280;9947;57.722;12.012;2023-04-28T04:43:12;101151.13;;;3.97;100.00
19600;BME280;9947;57.722;12.012;2023-04-28T04:45:44;101155.97;;;3.88;100.00
19600;BME280;9947;57.722;12.012;2023-04-28T04:48:11;101150.78;;;3.63;100.00
19600;BME280;9947;57.722;12.012;2023-04-28T04:50:41;101154.53;;;3.59;100.00
19600;BME280;9947;57.722;12.012;2023-04-28T04:53:08;101154.09;;;3.48;100.00
19600;BME280;9947;57.722;12.012;2023-04-28T04:55:36;101157.78;;;3.87;100.00
19600;BME280;9947;57.722;12.012;2023-04-28T04:58:06;101156.94;;;4.07;100.00
19600;BME280;9947;57.722;12.012;2023-04-28T05:00:40;101165.25;;;5.18;100.00
19600;BME280;9947;57.722;12.012;2023-04-28T05:03:08;101163.72;;;5.50;100.00
19600;BME280;9947;57.722;12.012;2023-04-28T05:05:36;101161.78;;;5.71;100.00
19600;BME280;9947;57.722;12.012;2023-04-28T05:13:15;101157.31;;;7.70;100.00
19600;BME280;9947;57.722;12.012;2023-04-28T05:15:44;101158.88;;;6.95;100.00
19600;BME280;9947;57.722;12.012;2023-04-28T05:18:15;101159.88;;;7.57;100.00
19600;BME280;9947;57.722;12.012;2023-04-28T05:20:42;101159.66;;;8.66;100.00
19600;BME280;9947;57.722;12.012;2023-04-28T05:23:15;101160.59;;;9.22;100.00
19600;BME280;9947;57.722;12.012;2023-04-28T05:25:44;101159.25;;;9.83;99.55
19600;BME280;9947;57.722;12.012;2023-04-28T05:28:13;101162.03;;;9.96;97.62
19600;BME280;9947;57.722;12.012;2023-04-28T05:30:41;101156.94;;;10.31;92.53
19600;BME280;9947;57.722;12.012;2023-04-28T05:33:11;101153.91;;;10.23;90.89
19600;BME280;9947;57.722;12.012;2023-04-28T05:35:41;101152.97;;;9.70;97.80
19600;BME280;9947;57.722;12.012;2023-04-28T05:38:12;101159.22;;;10.37;94.30
19600;BME280;9947;57.722;12.012;2023-04-28T05:40:45;101154.41;;;10.67;90.90
19600;BME280;9947;57.722;12.012;2023-04-28T05:43:13;101145.25;;;11.19;87.32
19600;BME280;9947;57.722;12.012;2023-04-28T05:45:59;101157.28;;;10.12;95.55
19600;BME280;9947;57.722;12.012;2023-04-28T05:48:30;101153.28;;;10.32;92.22
19600;BME280;9947;57.722;12.012;2023-04-28T05:53:24;101154.59;;;10.52;91.67
19600;BME280;9947;57.722;12.012;2023-04-28T05:55:53;101161.31;;;9.79;96.45
19600;BME280;9947;57.722;12.012;2023-04-28T05:58:25;101166.25;;;10.12;97.03
19600;BME280;9947;57.722;12.012;2023-04-28T06:03:44;101162.81;;;9.01;100.00
19600;BME280;9947;57.722;12.012;2023-04-28T06:06:18;101162.56;;;10.28;100.00
19600;BME280;9947;57.722;12.012;2023-04-28T06:08:49;101164.84;;;10.07;100.00
19600;BME280;9947;57.722;12.012;2023-04-28T06:11:17;101168.56;;;10.18;100.00
19600;BME280;9947;57.722;12.012;2023-04-28T06:13:57;101164.91;;;9.39;100.00
19600;BME280;9947;57.722;12.012;2023-04-28T06:16:32;101169.28;;;8.99;100.00
19600;BME280;9947;57.722;12.012;2023-04-28T06:21:32;101158.66;;;10.32;100.00
19600;BME280;9947;57.722;12.012;2023-04-28T06:24:07;101157.41;;;11.01;100.00
19600;BME280;9947;57.722;12.012;2023-04-28T06:26:39;101159.75;;;11.55;100.00
19600;BME280;9947;57.722;12.012;2023-04-28T06:29:11;101156.31;;;11.77;100.00
19600;BME280;9947;57.722;12.012;2023-04-28T06:31:40;101162.88;;;11.61;100.00
19600;BME280;9947;57.722;12.012;2023-04-28T06:34:10;101150.47;;;11.70;100.00
19600;BME280;9947;57.722;12.012;2023-04-28T06:39:38;101159.84;;;11.29;100.00
19600;BME280;9947;57.722;12.012;2023-04-28T06:42:19;101157.91;;;11.55;100.00
19600;BME280;9947;57.722;12.012;2023-04-28T06:44:47;101172.56;;;11.77;100.00
19600;BME280;9947;57.722;12.012;2023-04-28T06:47:21;101155.19;;;11.19;100.00
19600;BME280;9947;57.722;12.012;2023-04-28T06:49:53;101159.44;;;11.23;100.00
19600;BME280;9947;57.722;12.012;2023-04-28T06:52:22;101151.25;;;11.48;100.00
19600;BME280;9947;57.722;12.012;2023-04-28T06:57:26;101154.94;;;11.34;100.00
19600;BME280;9947;57.722;12.012;2023-04-28T07:00:03;101157.94;;;11.42;96.17
19600;BME280;9947;57.722;12.012;2023-04-28T07:02:36;101155.19;;;11.19;95.91
19600;BME280;9947;57.722;12.012;2023-04-28T07:05:11;101156.53;;;11.00;99.41
19600;BME280;9947;57.722;12.012;2023-04-28T07:07:41;101160.88;;;10.77;91.58
19600;BME280;9947;57.722;12.012;2023-04-28T07:10:15;101151.13;;;10.62;95.83
19600;BME280;9947;57.722;12.012;2023-04-28T07:12:49;101155.56;;;10.76;96.13
19600;BME280;9947;57.722;12.012;2023-04-28T07:17:46;101155.34;;;10.54;91.87
19600;BME280;9947;57.722;12.012;2023-04-28T07:20:22;101153.06;;;10.60;95.35
19600;BME280;9947;57.722;12.012;2023-04-28T07:22:56;101155.56;;;10.50;96.52
19600;BME280;9947;57.722;12.012;2023-04-28T07:25:30;101160.88;;;10.52;85.55
19600;BME280;9947;57.722;12.012;2023-04-28T07:28:38;101152.34;;;10.18;82.58
19600;BME280;9947;57.722;12.012;2023-04-28T07:31:09;101156.63;;;10.08;82.60
19600;BME280;9947;57.722;12.012;2023-04-28T07:33:41;101155.00;;;10.33;83.37
19600;BME280;9947;57.722;12.012;2023-04-28T07:38:43;101154.66;;;10.25;86.08
19600;BME280;9947;57.722;12.012;2023-04-28T07:41:21;101150.38;;;10.86;83.85
19600;BME280;9947;57.722;12.012;2023-04-28T07:43:51;101151.19;;;11.24;80.78
19600;BME280;9947;57.722;12.012;2023-04-28T07:46:24;101150.22;;;11.12;63.28
19600;BME280;9947;57.722;12.012;2023-04-28T07:49:10;101155.34;;;10.41;56.46
19600;BME280;9947;57.722;12.012;2023-04-28T07:51:38;101161.38;;;10.32;57.22
19600;BME280;9947;57.722;12.012;2023-04-28T07:54:09;101159.78;;;10.42;50.96
19600;BME280;9947;57.722;12.012;2023-04-28T07:56:38;101156.78;;;10.72;52.02
19600;BME280;9947;57.722;12.012;2023-04-28T07:59:09;101159.75;;;10.93;48.42
19600;BME280;9947;57.722;12.012;2023-04-28T08:01:36;101164.19;;;11.19;50.31
19600;BME280;9947;57.722;12.012;2023-04-28T08:04:04;101166.22;;;11.16;44.27
19600;BME280;9947;57.722;12.012;2023-04-28T08:06:32;101165.44;;;11.39;43.91
19600;BME280;9947;57.722;12.012;2023-04-28T08:11:27;101166.06;;;11.42;41.27
19600;BME280;9947;57.722;12.012;2023-04-28T08:13:55;101166.13;;;11.17;39.42
19600;BME280;9947;57.722;12.012;2023-04-28T08:16:31;101158.59;;;10.97;38.79
19600;BME280;9947;57.722;12.012;2023-04-28T08:21:24;101161.84;;;10.76;37.58
19600;BME280;9947;57.722;12.012;2023-04-28T08:23:52;101163.66;;;11.01;38.00
19600;BME280;9947;57.722;12.012;2023-04-28T08:28:57;101164.91;;;11.34;38.82
19600;BME280;9947;57.722;12.012;2023-04-28T08:31:36;101157.53;;;11.36;39.55
19600;BME280;9947;57.722;12.012;2023-04-28T08:41:50;101156.56;;;11.37;42.01
19600;BME280;9947;57.722;12.012;2023-04-28T08:44:20;101156.16;;;11.18;42.09
19600;BME280;9947;57.722;12.012;2023-04-28T08:47:02;101164.19;;;11.19;40.76
19600;BME280;9947;57.722;12.012;2023-04-28T08:49:34;101161.69;;;11.16;42.94
19600;BME280;9947;57.722;12.012;2023-04-28T08:54:29;101164.88;;;11.47;44.57
19600;BME280;9947;57.722;12.012;2023-04-28T08:57:22;101167.47;;;11.48;45.01
19600;BME280;9947;57.722;12.012;2023-04-28T08:59:54;101165.13;;;11.80;44.29
19600;BME280;9947;57.722;12.012;2023-04-28T09:02:25;101168.50;;;11.71;43.51
19600;BME280;9947;57.722;12.012;2023-04-28T09:04:54;101162.06;;;11.85;42.65
19600;BME280;9947;57.722;12.012;2023-04-28T09:07:28;101166.44;;;11.98;43.32
19600;BME280;9947;57.722;12.012;2023-04-28T09:12:35;101156.47;;;12.34;42.22
19600;BME280;9947;57.722;12.012;2023-04-28T09:15:08;101165.16;;;12.73;42.43
19600;BME280;9947;57.722;12.012;2023-04-28T09:17:54;101159.41;;;13.00;43.58
19600;BME280;9947;57.722;12.012;2023-04-28T09:20:24;101160.34;;;12.54;42.25
19600;BME280;9947;57.722;12.012;2023-04-28T09:22:55;101158.00;;;12.72;41.78
19600;BME280;9947;57.722;12.012;2023-04-28T09:25:23;101158.66;;;12.97;40.08
19600;BME280;9947;57.722;12.012;2023-04-28T09:27:52;101160.38;;;12.98;39.89
19600;BME280;9947;57.722;12.012;2023-04-28T09:30:38;101157.31;;;13.14;39.67
19600;BME280;9947;57.722;12.012;2023-04-28T09:33:20;101153.97;;;12.77;41.33
19600;BME280;9947;57.722;12.012;2023-04-28T09:35:50;101145.63;;;12.34;42.31
19600;BME280;9947;57.722;12.012;2023-04-28T09:38:21;101149.47;;;12.08;42.57
19600;BME280;9947;57.722;12.012;2023-04-28T09:40:50;101157.94;;;12.38;43.16
19600;BME280;9947;57.722;12.012;2023-04-28T09:43:22;101154.69;;;12.68;44.12
19600;BME280;9947;57.722;12.012;2023-04-28T09:45:50;101156.56;;;12.79;43.11
19600;BME280;9947;57.722;12.012;2023-04-28T09:48:26;101158.41;;;12.89;42.56
19600;BME280;9947;57.722;12.012;2023-04-28T09:50:54;101152.66;;;12.48;42.60
19600;BME280;9947;57.722;12.012;2023-04-28T09:53:26;101155.44;;;12.59;42.89
19600;BME280;9947;57.722;12.012;2023-04-28T09:55:54;101156.44;;;12.80;42.61
19600;BME280;9947;57.722;12.012;2023-04-28T09:58:22;101144.72;;;12.80;41.92
19600;BME280;9947;57.722;12.012;2023-04-28T10:00:52;101151.03;;;12.91;41.30
19600;BME280;9947;57.722;12.012;2023-04-28T10:03:21;101145.22;;;12.85;41.63
19600;BME280;9947;57.722;12.012;2023-04-28T10:05:51;101148.94;;;13.06;40.32
19600;BME280;9947;57.722;12.012;2023-04-28T10:08:19;101159.50;;;12.64;40.62
19600;BME280;9947;57.722;12.012;2023-04-28T10:10:48;101154.56;;;12.70;40.34
19600;BME280;9947;57.722;12.012;2023-04-28T10:13:20;101152.97;;;12.67;39.93
19600;BME280;9947;57.722;12.012;2023-04-28T10:15:48;101155.50;;;12.46;41.68
19600;BME280;9947;57.722;12.012;2023-04-28T10:18:16;101150.66;;;12.85;40.46
19600;BME280;9947;57.722;12.012;2023-04-28T10:20:48;101150.63;;;12.74;39.77
19600;BME280;9947;57.722;12.012;2023-04-28T10:29:22;101151.59;;;12.61;39.98
19600;BME280;9947;57.722;12.012;2023-04-28T10:32:18;101145.97;;;12.98;41.25
19600;BME280;9947;57.722;12.012;2023-04-28T10:34:47;101144.38;;;13.18;41.11
19600;BME280;9947;57.722;12.012;2023-04-28T10:37:16;101151.84;;;12.70;40.73
19600;BME280;9947;57.722;12.012;2023-04-28T10:42:53;101139.78;;;12.74;39.80
19600;BME280;9947;57.722;12.012;2023-04-28T10:46:02;101144.44;;;12.49;40.87
19600;BME280;9947;57.722;12.012;2023-04-28T10:48:56;101154.03;;;12.07;42.33
19600;BME280;9947;57.722;12.012;2023-04-28T10:51:31;101153.13;;;12.30;39.89
19600;BME280;9947;57.722;12.012;2023-04-28T10:56:25;101160.88;;;11.76;44.60
19600;BME280;9947;57.722;12.012;2023-04-28T10:58:57;101158.69;;;11.44;45.84
19600;BME280;9947;57.722;12.012;2023-04-28T11:01:27;101162.19;;;11.47;47.37
19600;BME280;9947;57.722;12.012;2023-04-28T11:03:57;101159.19;;;11.62;47.04
19600;BME280;9947;57.722;12.012;2023-04-28T11:06:29;101158.47;;;11.84;46.01
19600;BME280;9947;57.722;12.012;2023-04-28T11:12:12;101158.94;;;11.78;45.91
19600;BME280;9947;57.722;12.012;2023-04-28T11:14:44;101158.59;;;12.07;45.06
19600;BME280;9947;57.722;12.012;2023-04-28T11:17:12;101157.84;;;11.81;45.65
19600;BME280;9947;57.722;12.012;2023-04-28T11:19:44;101155.56;;;11.74;47.82
19600;BME280;9947;57.722;12.012;2023-04-28T11:22:16;101160.88;;;11.76;46.80
19600;BME280;9947;57.722;12.012;2023-04-28T11:24:54;101164.91;;;11.94;46.82
19600;BME280;9947;57.722;12.012;2023-04-28T11:27:27;101158.66;;;11.57;48.68
19600;BME280;9947;57.722;12.012;2023-04-28T11:29:58;101161.22;;;11.71;48.61
19600;BME280;9947;57.722;12.012;2023-04-28T11:32:26;101166.63;;;11.48;49.97
19600;BME280;9947;57.722;12.012;2023-04-28T11:34:54;101157.72;;;11.82;49.79
19600;BME280;9947;57.722;12.012;2023-04-28T11:37:21;101160.69;;;11.66;51.81
19600;BME280;9947;57.722;12.012;2023-04-28T11:39:49;101162.28;;;11.82;51.17
19600;BME280;9947;57.722;12.012;2023-04-28T11:42:17;101165.00;;;11.69;51.78
19600;BME280;9947;57.722;12.012;2023-04-28T11:44:50;101164.00;;;11.83;52.29
19600;BME280;9947;57.722;12.012;2023-04-28T11:47:29;101164.47;;;11.64;51.16
19600;BME280;9947;57.722;12.012;2023-04-28T11:49:57;101166.91;;;11.19;52.76
19600;BME280;9947;57.722;12.012;2023-04-28T11:52:26;101162.84;;;11.37;53.19
19600;BME280;9947;57.722;12.012;2023-04-28T11:54:54;101171.88;;;11.62;54.71
19600;BME280;9947;57.722;12.012;2023-04-28T11:57:24;101168.13;;;11.52;56.55
19600;BME280;9947;57.722;12.012;2023-04-28T11:59:51;101177.03;;;11.65;58.09
19600;BME280;9947;57.722;12.012;2023-04-28T12:02:24;101174.22;;;11.66;57.55
19600;BME280;9947;57.722;12.012;2023-04-28T12:04:54;101163.72;;;11.74;56.79
19600;BME280;9947;57.722;12.012;2023-04-28T12:07:23;101173.91;;;11.71;57.45
19600;BME280;9947;57.722;12.012;2023-04-28T12:10:10;101174.41;;;11.39;56.03
19600;BME280;9947;57.722;12.012;2023-04-28T12:12:37;101163.78;;;11.49;57.79
19600;BME280;9947;57.722;12.012;2023-04-28T12:17:36;101162.06;;;11.48;57.54
19600;BME280;9947;57.722;12.012;2023-04-28T12:20:09;101160.63;;;11.55;58.50
19600;BME280;9947;57.722;12.012;2023-04-28T12:22:45;101161.59;;;11.54;57.63
19600;BME280;9947;57.722;12.012;2023-04-28T12:25:14;101153.81;;;11.50;57.83
19600;BME280;9947;57.722;12.012;2023-04-28T12:27:59;101157.19;;;11.04;59.46
19600;BME280;9947;57.722;12.012;2023-04-28T12:30:28;101159.00;;;11.03;61.53
19600;BME280;9947;57.722;12.012;2023-04-28T12:32:56;101149.84;;;10.80;62.59
19600;BME280;9947;57.722;12.012;2023-04-28T12:35:30;101156.31;;;10.53;66.38
19600;BME280;9947;57.722;12.012;2023-04-28T12:38:00;101155.56;;;10.76;67.35
19600;BME280;9947;57.722;12.012;2023-04-28T12:40:28;101158.16;;;10.90;65.96
19600;BME280;9947;57.722;12.012;2023-04-28T12:42:56;101159.13;;;11.02;64.33
19600;BME280;9947;57.722;12.012;2023-04-28T12:45:26;101161.56;;;11.18;63.01
19600;BME280;9947;57.722;12.012;2023-04-28T12:47:56;101154.06;;;11.47;59.74
19600;BME280;9947;57.722;12.012;2023-04-28T12:50:23;101158.03;;;11.54;56.14
19600;BME280;9947;57.722;12.012;2023-04-28T12:52:54;101165.69;;;11.23;56.21
19600;BME280;9947;57.722;12.012;2023-04-28T12:55:23;101155.28;;;11.30;56.30
19600;BME280;9947;57.722;12.012;2023-04-28T12:57:50;101164.09;;;11.44;55.40
19600;BME280;9947;57.722;12.012;2023-04-28T13:00:17;101161.25;;;11.22;54.39
19600;BME280;9947;57.722;12.012;2023-04-28T13:02:47;101161.91;;;11.13;54.39
19600;BME280;9947;57.722;12.012;2023-04-28T13:05:15;101158.69;;;11.21;53.93
19600;BME280;9947;57.722;12.012;2023-04-28T13:07:44;101160.19;;;11.25;53.82
19600;BME280;9947;57.722;12.012;2023-04-28T13:10:15;101162.19;;;11.47;56.98
19600;BME280;9947;57.722;12.012;2023-04-28T13:12:42;101162.19;;;11.34;57.99
19600;BME280;9947;57.722;12.012;2023-04-28T13:15:10;101152.59;;;11.17;59.05
19600;BME280;9947;57.722;12.012;2023-04-28T13:17:40;101154.25;;;11.20;59.78
19600;BME280;9947;57.722;12.012;2023-04-28T13:20:11;101157.59;;;11.10;60.17
19600;BME280;9947;57.722;12.012;2023-04-28T13:22:38;101153.31;;;10.95;62.62
19600;BME280;9947;57.722;12.012;2023-04-28T13:27:32;101158.59;;;10.97;60.99
19600;BME280;9947;57.722;12.012;2023-04-28T13:32:31;101160.75;;;10.66;61.43
19600;BME280;9947;57.722;12.012;2023-04-28T13:34:58;101154.19;;;10.70;62.69
19600;BME280;9947;57.722;12.012;2023-04-28T13:37:26;101152.63;;;10.66;64.74
19600;BME280;9947;57.722;12.012;2023-04-28T13:39:56;101153.31;;;10.70;64.19
19600;BME280;9947;57.722;12.012;2023-04-28T13:42:25;101143.78;;;10.77;65.39
19600;BME280;9947;57.722;12.012;2023-04-28T13:45:00;101146.47;;;11.02;64.72
19600;BME280;9947;57.722;12.012;2023-04-28T13:47:27;101141.16;;;11.01;63.52
19600;BME280;9947;57.722;12.012;2023-04-28T13:49:57;101145.25;;;11.06;62.49
19600;BME280;9947;57.722;12.012;2023-04-28T13:52:27;101142.38;;;10.84;63.91
19600;BME280;9947;57.722;12.012;2023-04-28T13:54:55;101139.25;;;10.77;65.01
19600;BME280;9947;57.722;12.012;2023-04-28T13:57:25;101131.78;;;10.68;63.40
19600;BME280;9947;57.722;12.012;2023-04-28T13:59:59;101143.75;;;10.39;63.64
19600;BME280;9947;57.722;12.012;2023-04-28T14:02:26;101137.09;;;10.70;62.48
19600;BME280;9947;57.722;12.012;2023-04-28T14:04:54;101138.38;;;10.64;63.94
19600;BME280;9947;57.722;12.012;2023-04-28T14:07:22;101132.75;;;10.55;61.91
19600;BME280;9947;57.722;12.012;2023-04-28T14:09:50;101138.56;;;10.36;61.13
19600;BME280;9947;57.722;12.012;2023-04-28T14:12:23;101143.34;;;10.58;63.32
19600;BME280;9947;57.722;12.012;2023-04-28T14:14:51;101140.00;;;10.54;64.56
19600;BME280;9947;57.722;12.012;2023-04-28T14:17:23;101138.06;;;10.69;63.67
19600;BME280;9947;57.722;12.012;2023-04-28T14:19:51;101142.66;;;10.92;63.30
19600;BME280;9947;57.722;12.012;2023-04-28T14:22:18;101141.16;;;11.01;65.00
19600;BME280;9947;57.722;12.012;2023-04-28T14:24:45;101137.13;;;11.19;64.32
19600;BME280;9947;57.722;12.012;2023-04-28T14:27:12;101133.34;;;11.09;63.18
19600;BME280;9947;57.722;12.012;2023-04-28T14:29:43;101129.25;;;11.03;62.87
19600;BME280;9947;57.722;12.012;2023-04-28T14:32:12;101128.06;;;11.07;61.55
19600;BME280;9947;57.722;12.012;2023-04-28T14:34:42;101121.88;;;11.42;58.11
19600;BME280;9947;57.722;12.012;2023-04-28T14:37:10;101126.28;;;11.56;58.63
19600;BME280;9947;57.722;12.012;2023-04-28T14:39:37;101121.56;;;11.47;56.33
19600;BME280;9947;57.722;12.012;2023-04-28T14:42:05;101125.41;;;11.31;55.72
19600;BME280;9947;57.722;12.012;2023-04-28T14:44:36;101130.22;;;11.52;54.93
19600;BME280;9947;57.722;12.012;2023-04-28T14:47:05;101122.22;;;11.37;51.59